Terminal Aerodrome Forecast
Issued by NWS

Home | Current Version | Previous Version | Text Only | Print | Product List | Glossary On
Versions: 1 2 3 4 5 6 7 8 9 10 11 12 13 14 15 16 17
000
FTUS46 KSEW 031729
TAFPAE
TAF
KPAE 031729Z 0318/0418 13007KT P6SM VCSH BKN011 OVC090
     FM032000 19012KT P6SM SCT018 OVC050
      TEMPO 0321/0401 BKN018 OVC050
     FM040100 20012KT 6SM -RA BR BKN015 OVC030
     FM040400 20015G22KT 5SM -RA BR OVC015
     FM041200 VRB05KT 4SM -SHRA OVC012
     FM041400 31005KT P6SM -SHRA SCT015 BKN025=

USA.gov is the U.S. government's official web portal to all federal, state and local government web resources and services.